Desbarats, Canada
Current Conditions -  °F | °C
As of 1:15 AM on Monday 22 Dec 2014 (Local Time) from KDRM Reporting Station
Overcast Overcast  
Wind Chill: 24°   Ceiling: 5000
Heat Index: 33°   Visibility: 10mi
Dew Point: 28°   Wind: 12mph
Humidity: 84%   Direction: 180°S
Pressure: 30.11"   Gusts: 18mph
Location:  46.33°N, 83.93°W
Report Text: KDRM 220615Z AUTO 18010G16KT 10SM OVC050 01/M02 A3011 RMK AO2 T00051020
Loading
Personal Weather Stations






























Interactive Weather Map New forecast layout! Learn more

10-Day Weather Forecast

Advertisements
Track Severe Weather on mobile